sensor_id;sensor_type;location;lat;lon;timestamp;pressure;altitude;pressure_sealevel;temperature;humidity
55757;BME280;41676;44.610;44.078;2023-09-19T00:02:08;100950.75;;;10.75;97.06
55757;BME280;41676;44.610;44.078;2023-09-19T00:07:12;100875.03;;;10.17;96.58
55757;BME280;41676;44.610;44.078;2023-09-19T00:12:14;100985.97;;;10.77;96.73
55757;BME280;41676;44.610;44.078;2023-09-19T00:17:22;100803.34;;;9.46;96.70
55757;BME280;41676;44.610;44.078;2023-09-19T00:22:51;100783.31;;;9.33;97.76
55757;BME280;41676;44.610;44.078;2023-09-19T00:27:59;100741.69;;;8.98;96.84
55757;BME280;41676;44.610;44.078;2023-09-19T00:33:22;100820.56;;;9.32;98.26
55757;BME280;41676;44.610;44.078;2023-09-19T00:38:40;100957.25;;;10.09;98.18
55757;BME280;41676;44.610;44.078;2023-09-19T00:44:09;100880.63;;;9.51;98.17
55757;BME280;41676;44.610;44.078;2023-09-19T00:49:11;100868.88;;;9.53;97.43
55757;BME280;41676;44.610;44.078;2023-09-19T00:54:24;100832.97;;;9.13;96.94
55757;BME280;41676;44.610;44.078;2023-09-19T00:59:42;100919.38;;;9.62;97.48
55757;BME280;41676;44.610;44.078;2023-09-19T01:04:53;100856.50;;;9.17;97.48
55757;BME280;41676;44.610;44.078;2023-09-19T01:10:06;100762.06;;;8.60;97.36
55757;BME280;41676;44.610;44.078;2023-09-19T01:31:51;100894.13;;;9.30;97.60
55757;BME280;41676;44.610;44.078;2023-09-19T01:36:54;100915.16;;;9.41;97.25
55757;BME280;41676;44.610;44.078;2023-09-19T01:42:10;100927.88;;;9.37;97.88
55757;BME280;41676;44.610;44.078;2023-09-19T01:47:38;100932.72;;;9.42;99.57
55757;BME280;41676;44.610;44.078;2023-09-19T01:52:51;100973.78;;;9.75;98.30
55757;BME280;41676;44.610;44.078;2023-09-19T01:58:14;100921.09;;;9.53;98.75
55757;BME280;41676;44.610;44.078;2023-09-19T02:03:18;100792.75;;;8.43;97.28
55757;BME280;41676;44.610;44.078;2023-09-19T02:08:23;100870.00;;;8.96;96.91
55757;BME280;41676;44.610;44.078;2023-09-19T02:13:26;100985.47;;;9.45;97.29
55757;BME280;41676;44.610;44.078;2023-09-19T02:18:28;101006.25;;;9.50;97.21
55757;BME280;41676;44.610;44.078;2023-09-19T02:23:29;100955.28;;;9.09;97.25
55757;BME280;41676;44.610;44.078;2023-09-19T02:28:30;101005.47;;;9.30;97.39
55757;BME280;41676;44.610;44.078;2023-09-19T02:33:32;100954.78;;;8.96;97.53
55757;BME280;41676;44.610;44.078;2023-09-19T02:38:33;100910.63;;;8.57;97.22
55757;BME280;41676;44.610;44.078;2023-09-19T02:43:34;100969.72;;;8.87;97.26
55757;BME280;41676;44.610;44.078;2023-09-19T02:48:36;101003.31;;;8.96;97.45
55757;BME280;41676;44.610;44.078;2023-09-19T02:53:37;101009.03;;;9.01;97.51
55757;BME280;41676;44.610;44.078;2023-09-19T02:58:38;100952.72;;;8.70;97.51
55757;BME280;41676;44.610;44.078;2023-09-19T03:03:40;101028.09;;;9.14;97.50
55757;BME280;41676;44.610;44.078;2023-09-19T03:08:42;101034.91;;;9.27;97.56
55757;BME280;41676;44.610;44.078;2023-09-19T03:13:44;100990.34;;;9.12;97.59
55757;BME280;41676;44.610;44.078;2023-09-19T03:18:46;100824.13;;;8.29;97.32
55757;BME280;41676;44.610;44.078;2023-09-19T03:23:47;101015.00;;;9.60;97.09
55757;BME280;41676;44.610;44.078;2023-09-19T03:28:48;101054.34;;;10.02;97.04
55757;BME280;41676;44.610;44.078;2023-09-19T03:33:49;100984.81;;;9.98;96.68
55757;BME280;41676;44.610;44.078;2023-09-19T03:38:50;101024.00;;;10.60;95.75
55757;BME280;41676;44.610;44.078;2023-09-19T03:43:50;101047.41;;;11.18;95.31
55757;BME280;41676;44.610;44.078;2023-09-19T03:48:51;101044.16;;;11.76;94.88
55757;BME280;41676;44.610;44.078;2023-09-19T03:53:52;101023.09;;;12.33;93.47
55757;BME280;41676;44.610;44.078;2023-09-19T03:58:52;100985.66;;;13.09;91.20
55757;BME280;41676;44.610;44.078;2023-09-19T04:03:54;101042.81;;;14.42;89.11
55757;BME280;41676;44.610;44.078;2023-09-19T04:08:54;101042.56;;;15.21;86.20
55757;BME280;41676;44.610;44.078;2023-09-19T04:13:57;101012.50;;;15.63;83.69
55757;BME280;41676;44.610;44.078;2023-09-19T04:18:58;101042.44;;;16.48;81.61
55757;BME280;41676;44.610;44.078;2023-09-19T04:23:59;101013.56;;;16.86;78.14
55757;BME280;41676;44.610;44.078;2023-09-19T04:29:00;101013.81;;;16.91;75.31
55757;BME280;41676;44.610;44.078;2023-09-19T04:34:01;101052.16;;;17.06;73.08
55757;BME280;41676;44.610;44.078;2023-09-19T04:39:03;101003.63;;;16.22;73.48
55757;BME280;41676;44.610;44.078;2023-09-19T04:44:08;101020.31;;;16.24;73.20
55757;BME280;41676;44.610;44.078;2023-09-19T04:49:09;101050.88;;;16.44;72.87
55757;BME280;41676;44.610;44.078;2023-09-19T04:54:10;101010.97;;;16.35;72.24
55757;BME280;41676;44.610;44.078;2023-09-19T08:20:10;100842.91;;;24.22;44.80
55757;BME280;41676;44.610;44.078;2023-09-19T08:25:16;100973.81;;;25.20;44.38
55757;BME280;41676;44.610;44.078;2023-09-19T08:30:20;100979.53;;;25.62;43.76
55757;BME280;41676;44.610;44.078;2023-09-19T08:35:24;100797.47;;;24.34;43.24
55757;BME280;41676;44.610;44.078;2023-09-19T08:40:27;100859.19;;;24.89;41.84
55757;BME280;41676;44.610;44.078;2023-09-19T08:45:36;100889.19;;;25.16;41.70
55757;BME280;41676;44.610;44.078;2023-09-19T08:57:33;100819.66;;;25.03;40.22
55757;BME280;41676;44.610;44.078;2023-09-19T09:03:03;100768.63;;;24.45;39.21
55757;BME280;41676;44.610;44.078;2023-09-19T09:34:09;100920.97;;;26.31;39.38
55757;BME280;41676;44.610;44.078;2023-09-19T09:46:14;100678.38;;;24.81;37.76
55757;BME280;41676;44.610;44.078;2023-09-19T09:51:31;100905.06;;;26.17;36.38
55757;BME280;41676;44.610;44.078;2023-09-19T09:56:31;100755.56;;;25.30;38.04
55757;BME280;41676;44.610;44.078;2023-09-19T10:01:48;100690.47;;;25.18;37.34
55757;BME280;41676;44.610;44.078;2023-09-19T10:06:50;100795.34;;;25.85;36.64
55757;BME280;41676;44.610;44.078;2023-09-19T10:12:05;100828.03;;;26.22;35.70
55757;BME280;41676;44.610;44.078;2023-09-19T10:17:10;100797.22;;;25.84;35.94
55757;BME280;41676;44.610;44.078;2023-09-19T10:22:11;100763.63;;;25.73;36.51
55757;BME280;41676;44.610;44.078;2023-09-19T10:27:16;100862.31;;;26.50;35.72
55757;BME280;41676;44.610;44.078;2023-09-19T10:32:18;100849.06;;;26.32;35.29
55757;BME280;41676;44.610;44.078;2023-09-19T10:37:24;100852.59;;;26.32;34.78
55757;BME280;41676;44.610;44.078;2023-09-19T10:42:31;100825.06;;;26.29;34.28
55757;BME280;41676;44.610;44.078;2023-09-19T10:47:53;100760.88;;;26.01;34.18
55757;BME280;41676;44.610;44.078;2023-09-19T10:53:26;100789.69;;;25.96;32.23
55757;BME280;41676;44.610;44.078;2023-09-19T11:04:27;100828.09;;;26.32;32.96
55757;BME280;41676;44.610;44.078;2023-09-19T11:09:48;100781.44;;;25.86;32.24
55757;BME280;41676;44.610;44.078;2023-09-19T11:14:49;100765.34;;;25.53;32.39
55757;BME280;41676;44.610;44.078;2023-09-19T11:30:30;100803.88;;;25.99;33.27
55757;BME280;41676;44.610;44.078;2023-09-19T11:36:07;100800.63;;;26.02;32.70
55757;BME280;41676;44.610;44.078;2023-09-19T11:46:28;100672.91;;;25.31;32.90
55757;BME280;41676;44.610;44.078;2023-09-19T11:51:40;100634.59;;;25.05;33.18
55757;BME280;41676;44.610;44.078;2023-09-19T12:20:44;100695.19;;;25.27;33.06
55757;BME280;41676;44.610;44.078;2023-09-19T12:25:47;100658.25;;;25.04;33.91
55757;BME280;41676;44.610;44.078;2023-09-19T12:31:06;100734.78;;;25.45;33.52
55757;BME280;41676;44.610;44.078;2023-09-19T12:36:23;100762.97;;;25.61;34.17
55757;BME280;41676;44.610;44.078;2023-09-19T12:41:35;100746.16;;;25.37;34.75
55757;BME280;41676;44.610;44.078;2023-09-19T12:46:36;100732.91;;;25.19;35.17
55757;BME280;41676;44.610;44.078;2023-09-19T12:51:40;100675.34;;;24.78;34.96
55757;BME280;41676;44.610;44.078;2023-09-19T12:56:41;100749.31;;;25.29;35.07
55757;BME280;41676;44.610;44.078;2023-09-19T13:01:45;100692.41;;;24.73;34.74
55757;BME280;41676;44.610;44.078;2023-09-19T13:06:50;100719.00;;;24.93;35.68
55757;BME280;41676;44.610;44.078;2023-09-19T13:11:53;100723.53;;;24.88;35.34
55757;BME280;41676;44.610;44.078;2023-09-19T13:17:05;100701.44;;;24.57;35.32
55757;BME280;41676;44.610;44.078;2023-09-19T13:27:41;100747.50;;;24.69;35.51
55757;BME280;41676;44.610;44.078;2023-09-19T13:32:42;100709.59;;;24.40;36.51
55757;BME280;41676;44.610;44.078;2023-09-19T13:37:47;100606.50;;;23.67;35.90
55757;BME280;41676;44.610;44.078;2023-09-19T13:42:49;100601.25;;;23.61;36.29
55757;BME280;41676;44.610;44.078;2023-09-19T13:47:53;100737.66;;;24.29;36.57
55757;BME280;41676;44.610;44.078;2023-09-19T13:52:55;100731.47;;;24.11;36.99
55757;BME280;41676;44.610;44.078;2023-09-19T13:57:55;100665.03;;;23.63;37.72
55757;BME280;41676;44.610;44.078;2023-09-19T14:02:57;100705.56;;;23.70;38.12
55757;BME280;41676;44.610;44.078;2023-09-19T14:07:58;100499.41;;;22.35;37.84
55757;BME280;41676;44.610;44.078;2023-09-19T14:13:03;100684.53;;;23.32;38.08
55757;BME280;41676;44.610;44.078;2023-09-19T14:18:05;100705.84;;;23.40;38.70
55757;BME280;41676;44.610;44.078;2023-09-19T14:23:05;100672.09;;;23.02;39.71
55757;BME280;41676;44.610;44.078;2023-09-19T14:28:06;100657.44;;;22.74;39.82
55757;BME280;41676;44.610;44.078;2023-09-19T14:33:10;100737.84;;;23.26;39.33
55757;BME280;41676;44.610;44.078;2023-09-19T14:38:11;100746.78;;;22.98;40.25
55757;BME280;41676;44.610;44.078;2023-09-19T14:43:12;100626.84;;;22.10;40.59
55757;BME280;41676;44.610;44.078;2023-09-19T14:48:12;100663.41;;;22.13;41.31
55757;BME280;41676;44.610;44.078;2023-09-19T14:53:13;100709.56;;;22.18;41.46
55757;BME280;41676;44.610;44.078;2023-09-19T14:58:14;100692.00;;;21.97;42.36
55757;BME280;41676;44.610;44.078;2023-09-19T15:03:15;100724.59;;;22.02;42.45
55757;BME280;41676;44.610;44.078;2023-09-19T15:08:15;100663.75;;;21.46;42.72
55757;BME280;41676;44.610;44.078;2023-09-19T15:13:16;100698.97;;;21.51;43.46
55757;BME280;41676;44.610;44.078;2023-09-19T15:18:17;100629.78;;;20.78;44.40
55757;BME280;41676;44.610;44.078;2023-09-19T15:23:18;100646.22;;;20.58;44.82
55757;BME280;41676;44.610;44.078;2023-09-19T15:28:19;100750.88;;;21.11;45.38
55757;BME280;41676;44.610;44.078;2023-09-19T15:33:24;100659.84;;;20.26;46.12
55757;BME280;41676;44.610;44.078;2023-09-19T15:38:25;100691.34;;;20.32;46.36
55757;BME280;41676;44.610;44.078;2023-09-19T15:43:30;100765.59;;;20.78;46.30
55757;BME280;41676;44.610;44.078;2023-09-19T15:48:31;100771.56;;;20.43;46.98
55757;BME280;41676;44.610;44.078;2023-09-19T15:58:45;100789.31;;;20.08;47.82
55757;BME280;41676;44.610;44.078;2023-09-19T16:03:48;100710.69;;;19.47;48.93
55757;BME280;41676;44.610;44.078;2023-09-19T16:08:51;100792.19;;;19.81;48.85
55757;BME280;41676;44.610;44.078;2023-09-19T16:13:53;100765.19;;;19.49;49.72
55757;BME280;41676;44.610;44.078;2023-09-19T16:19:03;100787.19;;;19.46;50.28
55757;BME280;41676;44.610;44.078;2023-09-19T16:24:06;100801.94;;;19.37;50.39
55757;BME280;41676;44.610;44.078;2023-09-19T16:29:11;100790.06;;;19.06;51.13
55757;BME280;41676;44.610;44.078;2023-09-19T16:34:13;100763.66;;;18.70;51.40
55757;BME280;41676;44.610;44.078;2023-09-19T16:39:14;100818.47;;;18.96;51.88
55757;BME280;41676;44.610;44.078;2023-09-19T16:44:16;100825.34;;;18.85;51.63
55757;BME280;41676;44.610;44.078;2023-09-19T16:49:17;100775.72;;;18.34;52.10
55757;BME280;41676;44.610;44.078;2023-09-19T16:54:19;100841.06;;;18.61;52.43
55757;BME280;41676;44.610;44.078;2023-09-19T16:59:21;100788.53;;;18.12;53.21
55757;BME280;41676;44.610;44.078;2023-09-19T17:04:24;100844.59;;;18.35;53.43
55757;BME280;41676;44.610;44.078;2023-09-19T17:09:25;100842.31;;;18.12;53.98
55757;BME280;41676;44.610;44.078;2023-09-19T17:14:26;100773.75;;;17.62;54.08
55757;BME280;41676;44.610;44.078;2023-09-19T17:19:29;100854.69;;;18.00;54.17
55757;BME280;41676;44.610;44.078;2023-09-19T17:24:30;100836.88;;;17.86;54.18
55757;BME280;41676;44.610;44.078;2023-09-19T17:29:31;100765.44;;;17.37;55.13
55757;BME280;41676;44.610;44.078;2023-09-19T17:34:33;100811.78;;;17.52;55.16
55757;BME280;41676;44.610;44.078;2023-09-19T17:39:34;100863.72;;;17.72;54.92
55757;BME280;41676;44.610;44.078;2023-09-19T17:44:35;100845.28;;;17.63;55.16
55757;BME280;41676;44.610;44.078;2023-09-19T17:49:36;100838.44;;;17.53;55.11
55757;BME280;41676;44.610;44.078;2023-09-19T17:54:37;100780.66;;;17.16;54.88
55757;BME280;41676;44.610;44.078;2023-09-19T17:59:38;100777.94;;;17.03;55.04
55757;BME280;41676;44.610;44.078;2023-09-19T18:04:39;100693.44;;;16.51;55.61
55757;BME280;41676;44.610;44.078;2023-09-19T18:09:40;100844.97;;;17.38;55.62
55757;BME280;41676;44.610;44.078;2023-09-19T18:14:41;100752.97;;;16.74;55.54
55757;BME280;41676;44.610;44.078;2023-09-19T18:19:42;100792.06;;;16.83;56.28
55757;BME280;41676;44.610;44.078;2023-09-19T18:24:43;100849.63;;;17.16;57.01
55757;BME280;41676;44.610;44.078;2023-09-19T18:29:44;100849.78;;;17.07;57.18
55757;BME280;41676;44.610;44.078;2023-09-19T18:34:47;100767.31;;;16.53;57.14
55757;BME280;41676;44.610;44.078;2023-09-19T18:39:47;100815.16;;;16.78;57.07
55757;BME280;41676;44.610;44.078;2023-09-19T18:44:48;100833.34;;;16.82;57.45
55757;BME280;41676;44.610;44.078;2023-09-19T18:49:49;100852.78;;;16.84;57.97
55757;BME280;41676;44.610;44.078;2023-09-19T18:54:50;100778.13;;;16.38;58.03
55757;BME280;41676;44.610;44.078;2023-09-19T18:59:51;100787.47;;;16.42;58.28
55757;BME280;41676;44.610;44.078;2023-09-19T19:04:52;100834.50;;;16.73;58.09
55757;BME280;41676;44.610;44.078;2023-09-19T19:09:53;100859.03;;;16.70;58.91
55757;BME280;41676;44.610;44.078;2023-09-19T19:14:53;100825.69;;;16.51;59.07
55757;BME280;41676;44.610;44.078;2023-09-19T19:19:54;100828.22;;;16.59;58.91
55757;BME280;41676;44.610;44.078;2023-09-19T19:24:55;100824.47;;;16.82;58.79
55757;BME280;41676;44.610;44.078;2023-09-19T19:29:57;100836.75;;;16.98;59.03
55757;BME280;41676;44.610;44.078;2023-09-19T19:34:57;100765.53;;;16.67;58.75
55757;BME280;41676;44.610;44.078;2023-09-19T19:39:58;100837.03;;;17.16;58.71
55757;BME280;41676;44.610;44.078;2023-09-19T19:45:00;100832.09;;;17.20;58.43
55757;BME280;41676;44.610;44.078;2023-09-19T19:50:00;100792.31;;;16.88;58.65
55757;BME280;41676;44.610;44.078;2023-09-19T19:55:01;100839.88;;;17.08;59.03
55757;BME280;41676;44.610;44.078;2023-09-19T20:00:03;100846.44;;;16.99;59.31
55757;BME280;41676;44.610;44.078;2023-09-19T20:05:07;100775.88;;;16.42;59.77
55757;BME280;41676;44.610;44.078;2023-09-19T20:10:11;100851.63;;;16.72;61.43
55757;BME280;41676;44.610;44.078;2023-09-19T20:15:21;100784.66;;;16.01;61.25
55757;BME280;41676;44.610;44.078;2023-09-19T20:20:22;100810.25;;;16.04;62.31
55757;BME280;41676;44.610;44.078;2023-09-19T20:25:22;100804.69;;;15.84;62.75
55757;BME280;41676;44.610;44.078;2023-09-19T20:30:24;100840.72;;;16.03;63.17
55757;BME280;41676;44.610;44.078;2023-09-19T20:35:25;100800.56;;;15.66;63.62
55757;BME280;41676;44.610;44.078;2023-09-19T20:40:25;100738.66;;;15.18;64.44
55757;BME280;41676;44.610;44.078;2023-09-19T20:45:26;100839.06;;;15.80;64.58
55757;BME280;41676;44.610;44.078;2023-09-19T20:50:27;100845.56;;;15.71;64.93
55757;BME280;41676;44.610;44.078;2023-09-19T20:55:28;100841.88;;;15.57;65.81
55757;BME280;41676;44.610;44.078;2023-09-19T21:00:29;100836.44;;;15.50;66.18
55757;BME280;41676;44.610;44.078;2023-09-19T21:05:30;100706.94;;;14.64;66.56
55757;BME280;41676;44.610;44.078;2023-09-19T21:10:31;100737.09;;;14.73;66.75
55757;BME280;41676;44.610;44.078;2023-09-19T21:15:32;100833.63;;;15.22;67.54
55757;BME280;41676;44.610;44.078;2023-09-19T21:20:33;100842.75;;;14.98;68.44
55757;BME280;41676;44.610;44.078;2023-09-19T21:25:34;100834.66;;;14.77;69.12
55757;BME280;41676;44.610;44.078;2023-09-19T21:30:35;100823.75;;;14.64;69.99
55757;BME280;41676;44.610;44.078;2023-09-19T21:35:44;100694.63;;;13.73;72.52
55757;BME280;41676;44.610;44.078;2023-09-19T21:40:45;100842.22;;;14.50;71.05
55757;BME280;41676;44.610;44.078;2023-09-19T21:45:46;100837.81;;;14.43;71.05
55757;BME280;41676;44.610;44.078;2023-09-19T21:50:53;100844.28;;;14.48;71.82
55757;BME280;41676;44.610;44.078;2023-09-19T21:56:00;100824.97;;;14.38;71.69
55757;BME280;41676;44.610;44.078;2023-09-19T22:01:01;100767.44;;;14.12;70.85
55757;BME280;41676;44.610;44.078;2023-09-19T22:06:10;100823.31;;;14.37;71.50
55757;BME280;41676;44.610;44.078;2023-09-19T22:11:11;100801.13;;;14.13;71.65
55757;BME280;41676;44.610;44.078;2023-09-19T22:16:15;100814.09;;;14.02;72.89
55757;BME280;41676;44.610;44.078;2023-09-19T22:21:17;100754.81;;;13.60;73.20
55757;BME280;41676;44.610;44.078;2023-09-19T22:26:34;100795.81;;;13.67;73.30
55757;BME280;41676;44.610;44.078;2023-09-19T22:31:38;100787.44;;;13.47;73.50
55757;BME280;41676;44.610;44.078;2023-09-19T22:36:42;100828.38;;;13.63;73.94
55757;BME280;41676;44.610;44.078;2023-09-19T22:41:43;100827.22;;;13.57;74.62
55757;BME280;41676;44.610;44.078;2023-09-19T22:46:46;100779.25;;;13.10;75.57
55757;BME280;41676;44.610;44.078;2023-09-19T22:51:48;100783.06;;;13.15;75.47
55757;BME280;41676;44.610;44.078;2023-09-19T22:56:52;100786.97;;;12.96;75.87
55757;BME280;41676;44.610;44.078;2023-09-19T23:01:53;100836.44;;;13.07;76.45
55757;BME280;41676;44.610;44.078;2023-09-19T23:06:57;100807.72;;;12.70;77.27
55757;BME280;41676;44.610;44.078;2023-09-19T23:12:05;100845.19;;;12.85;77.75
55757;BME280;41676;44.610;44.078;2023-09-19T23:17:07;100850.66;;;12.83;78.27
55757;BME280;41676;44.610;44.078;2023-09-19T23:22:15;100849.34;;;12.79;78.84
55757;BME280;41676;44.610;44.078;2023-09-19T23:27:19;100772.31;;;12.20;78.91
55757;BME280;41676;44.610;44.078;2023-09-19T23:32:24;100758.03;;;12.13;79.53
55757;BME280;41676;44.610;44.078;2023-09-19T23:37:25;100795.81;;;12.33;79.65
55757;BME280;41676;44.610;44.078;2023-09-19T23:42:28;100826.25;;;12.47;80.05
55757;BME280;41676;44.610;44.078;2023-09-19T23:47:28;100843.41;;;12.52;80.24
55757;BME280;41676;44.610;44.078;2023-09-19T23:52:29;100841.25;;;12.48;80.11
55757;BME280;41676;44.610;44.078;2023-09-19T23:57:30;100853.25;;;12.36;81.03
